• Join FlightAware (Why Join?)
  • Login
  • US Flag 
04:50PM EST


 

Airport Tracker/Info


-or-


 

Live Flight TrackerFlight Track Log ✈ AAY894 ✈ 23-Jan-2014 ✈ KPIE - KIAG

Flight Track Log - Related Links

Times and Time Zones

All times are in EST time to prevent confusion due to time zone crossing. See the AAY894 flight status page for this flight to view local times or setup timezone preferences in your user account.

Time Position Orientation Groundspeed Altitude Reporting Facility
EST Latitude Longitude Course Direction KTS MPH feet Rate Location/Type
08:27AM 27.9333 -82.7000 24° Northeast 158 182 1,600  Level Tampa TRACON
08:28AM 27.9667 -82.6833 24° Northeast 179 206 2,700 2,160 Climbing Tampa TRACON
08:28AM 28.0167 -82.6833 360° North 216 249 4,900 2,280 Climbing Tampa TRACON
08:29AM 28.0833 -82.6833 360° North 228 262 7,100 1,260 Climbing Tampa TRACON
08:31AM 28.1600 -82.5958 45° Northeast 237 273 8,700 1,020 Climbing Jacksonville Center
08:32AM 28.2331 -82.5981 358° North 225 259 10,100 1,500 Climbing Jacksonville Center
08:33AM 28.3228 -82.5956 North 269 310 11,800 1,800 Climbing Jacksonville Center
08:34AM 28.4231 -82.5975 359° North 317 365 13,700 1,980 Climbing Jacksonville Center
08:35AM 28.5294 -82.5947 North 356 410 15,800 1,800 Climbing Jacksonville Center
08:36AM 28.6461 -82.5897 North 392 451 17,300 1,380 Climbing Jacksonville Center
08:37AM 28.7797 -82.5847 North 422 486 18,600 1,860 Climbing Jacksonville Center
08:38AM 28.9008 -82.5914 357° North 433 498 21,100 1,980 Climbing Jacksonville Center
08:39AM 29.0261 -82.6075 354° North 444 511 22,600 1,500 Climbing Jacksonville Center
08:40AM 29.1514 -82.6167 356° North 444 511 24,100 1,260 Climbing Jacksonville Center
08:41AM 29.2850 -82.6189 359° North 451 519 25,200 1,800 Climbing Jacksonville Center
08:42AM 29.4186 -82.6111 North 469 540 27,700 2,280 Climbing Jacksonville Center
08:43AM 29.5458 -82.6014 North 469 540 29,800 1,800 Climbing Jacksonville Center
08:44AM 29.6692 -82.5961 North 456 525 31,300 1,200 Climbing Jacksonville Center
08:45AM 29.7903 -82.5911 North 437 503 32,200 720 Climbing Jacksonville Center
08:46AM 29.8986 -82.5858 North 437 503 32,800 300 Climbing Jacksonville Center
08:47AM 30.0322 -82.5806 North 437 503 32,900 60 Climbing Jacksonville Center
08:48AM 30.1431 -82.5781 North 437 503 33,000  Climbing Jacksonville Center
08:49AM 30.2683 -82.5703 North 442 509 33,000 -60 Level Jacksonville Center
08:50AM 30.3892 -82.5650 North 437 503 32,900  Descending Jacksonville Center
08:51AM 30.5103 -82.5597 North 437 503 33,000  Climbing Jacksonville Center
08:52AM 30.6336 -82.5547 North 437 503 33,000  Level Jacksonville Center
08:53AM 30.7525 -82.5492 North 437 503 33,000  Level Jacksonville Center
08:54AM 30.8758 -82.5442 North 437 503 33,000  Level Jacksonville Center
08:55AM 30.9947 -82.5364 North 437 503 33,000  Level Jacksonville Center
08:56AM 31.1136 -82.5311 North 432 497 33,000  Level Jacksonville Center
08:57AM 31.2347 -82.5256 North 432 497 33,000  Level Jacksonville Center
08:58AM 31.3706 -82.5153 North 434 499 33,000  Level Jacksonville Center
09:00AM 31.5908 -82.5006 North 438 504 33,000  Level Atlanta Center
09:01AM 31.7200 -82.4811 North 444 511 33,000  Level Atlanta Center
09:02AM 31.8450 -82.4619 North 449 517 33,000  Level Atlanta Center
09:03AM 31.9700 -82.4403 North 449 517 33,000  Level Atlanta Center
09:04AM 32.0992 -82.4208 North 459 528 33,000  Level Atlanta Center
09:05AM 32.2303 -82.4011 North 465 535 33,000  Level Atlanta Center
09:06AM 32.3408 -82.3794 North 460 529 33,000  Level Atlanta Center
09:07AM 32.4700 -82.3622 North 460 529 33,000  Level Atlanta Center
09:08AM 32.5969 -82.3425 North 460 529 33,000  Level Atlanta Center
09:09AM 32.7239 -82.3203 North 460 529 33,000  Level Atlanta Center
09:10AM 32.8531 -82.3006 North 460 529 33,000  Level Atlanta Center
09:11AM 32.9967 -82.2753 North 466 536 33,000  Level Atlanta Center
09:12AM 33.1217 -82.2581 North 461 531 33,000  Level Atlanta Center
09:13AM 33.2508 -82.2381 North 461 531 33,000  Level Atlanta Center
09:14AM 33.3778 -82.2153 North 461 531 33,000  Level Atlanta Center
09:15AM 33.5008 -82.1953 North 455 524 33,000  Level Atlanta Center
09:16AM 33.6278 -82.1728 North 455 524 33,000  Level Atlanta Center
09:17AM 33.7567 -82.1525 North 455 524 33,000  Level Atlanta Center
09:18AM 33.8839 -82.1319 North 460 529 33,000  Level Atlanta Center
09:19AM 34.0128 -82.1092 North 460 529 33,000  Level Atlanta Center
09:20AM 34.1294 -82.0864 North 465 535 33,000  Level Atlanta Center
09:21AM 34.2542 -82.0533 12° North 465 535 33,000  Level Atlanta Center
09:22AM 34.3831 -82.0228 11° North 465 535 33,000  Level Atlanta Center
09:23AM 34.5139 -81.9917 11° North 465 535 33,000  Level Atlanta Center
09:24AM 34.6406 -81.9558 13° North 465 535 33,000  Level Atlanta Center
09:25AM 34.7797 -81.9194 12° North 465 535 33,000  Level Atlanta Center
09:26AM 34.9067 -81.8908 10° North 470 541 33,000  Level Atlanta Center
09:27AM 35.0375 -81.8597 11° North 469 540 33,000  Level Atlanta Center
09:28AM 35.1664 -81.8258 12° North 469 540 33,000  Level Atlanta Center
09:29AM 35.2950 -81.7919 12° North 469 540 33,000  Level Atlanta Center
09:30AM 35.4197 -81.7606 12° North 469 540 33,000  Level Atlanta Center
09:31AM 35.5483 -81.7261 12° North 469 540 33,000  Level Atlanta Center
09:32AM 35.6772 -81.6944 11° North 469 540 33,000  Level Atlanta Center
09:33AM 35.8036 -81.6575 13° North 464 534 33,000  Level Atlanta Center
09:34AM 35.9322 -81.6256 11° North 469 540 33,000  Level Atlanta Center
09:35AM 36.0608 -81.5883 13° North 469 540 33,000  Level Atlanta Center
09:36AM 36.1875 -81.5586 11° North 469 540 33,000  Level Atlanta Center
09:37AM 36.3181 -81.5161 15° North 469 540 33,000  Level Atlanta Center
09:38AM 36.4447 -81.4889 10° North 469 540 33,000  Level Atlanta Center
09:39AM 36.5753 -81.4511 13° North 469 540 33,000  Level Atlanta Center
09:40AM 36.7039 -81.4158 12° North 469 540 33,000  Level Atlanta Center
09:41AM 36.8200 -81.3861 12° North 469 540 33,000  Level Atlanta Center
09:43AM 37.0486 -81.3250 12° North 493 567 33,000  Level Indianapolis Center
09:44AM 37.1811 -81.2892 12° North 487 560 33,000  Level Indianapolis Center
09:45AM 37.3386 -81.2472 12° North 486 559 33,000  Level Indianapolis Center
09:46AM 37.4661 -81.2108 13° North 480 552 33,000  Level Indianapolis Center
09:47AM 37.5958 -81.1764 12° North 483 556 33,000  Level Indianapolis Center
09:48AM 37.7253 -81.1397 13° North 485 558 33,000  Level Indianapolis Center
09:49AM 37.8736 -81.0975 13° North 486 559 33,000  Level Indianapolis Center
09:50AM 38.0047 -81.0603 13° North 483 556 33,000  Level Indianapolis Center
09:51AM 38.1333 -81.0231 13° North 476 548 33,000 240 Level Indianapolis Center
09:52AM 38.2619 -80.9858 13° North 477 549 33,500 720 Climbing Indianapolis Center
09:53AM 38.3897 -80.9486 13° North 475 547 34,500 720 Climbing Indianapolis Center
09:54AM 38.5414 -80.9042 13° North 469 540 35,000 240 Climbing Indianapolis Center
09:55AM 38.6711 -80.8653 13° North 479 551 35,000  Level Indianapolis Center
09:56AM 38.7997 -80.8261 13° North 477 549 35,000  Level Indianapolis Center
09:57AM 38.9275 -80.7897 12° North 474 545 35,000  Level Indianapolis Center
09:58AM 39.0558 -80.7506 13° North 474 545 35,000  Level Indianapolis Center
09:59AM 39.1867 -80.7097 14° North 482 555 35,000  Level Indianapolis Center
10:00AM 39.3439 -80.6433 18° North 492 566 35,000  Level Indianapolis Center
10:01AM 39.4756 -80.5906 17° North 495 570 35,000 -300 Level Indianapolis Center
10:03AM 39.6075 -80.5328 19° North 501 577 34,400 -720 Descending Indianapolis Center
10:03AM 39.7225 -80.4883 17° North 491 565 33,600 -720 Descending Cleveland Center
10:05AM 39.8508 -80.4331 18° North 485 558 33,000 -900 Descending Cleveland Center
10:06AM 40.0058 -80.3686 18° North 487 560 31,800 -960 Descending Cleveland Center
10:07AM 40.1317 -80.3150 18° North 480 552 31,100 -420 Descending Cleveland Center
10:08AM 40.2597 -80.2600 18° North 480 552 31,000 -60 Descending Cleveland Center
10:09AM 40.3800 -80.2094 18° North 480 552 31,000  Level Cleveland Center
10:10AM 40.5344 -80.1414 19° North 483 556 31,000  Level Cleveland Center
10:11AM 40.6644 -80.0867 18° North 487 560 31,000 -60 Level Cleveland Center
10:12AM 40.7950 -80.0306 18° North 489 563 30,900 -540 Descending Cleveland Center
10:13AM 40.9133 -79.9786 18° North 486 559 29,900 -1,020 Descending Cleveland Center
10:14AM 41.0369 -79.9250 18° North 474 545 28,900 -1,020 Descending Cleveland Center
10:15AM 41.1653 -79.8675 19° North 454 522 27,800 -960 Descending Cleveland Center
10:16AM 41.2811 -79.8167 18° North 442 509 27,000 -420 Descending Cleveland Center
10:17AM 41.3983 -79.7650 18° North 442 509 27,000  Level Cleveland Center
10:18AM 41.5339 -79.7053 18° North 431 496 27,000  Level Cleveland Center
10:19AM 41.6453 -79.6567 18° North 424 488 27,000 -180 Level Cleveland Center
10:20AM 41.7561 -79.6067 19° North 418 481 26,700 -1,020 Descending Cleveland Center
10:21AM 41.8653 -79.5578 18° North 418 481 25,000 -1,680 Descending Cleveland Center
10:22AM 41.9719 -79.5089 19° North 408 470 23,300 -1,620 Descending Cleveland Center
10:23AM 42.0733 -79.4631 19° North 389 448 21,700 -1,620 Descending Cleveland Center
10:24AM 42.1697 -79.4181 19° North 372 428 20,000 -1,800 Descending Cleveland Center
10:25AM 42.2811 -79.3678 18° North 357 411 18,000 -1,800 Descending Cleveland Center
10:26AM 42.3689 -79.3300 18° North 338 389 16,400 -1,680 Descending Cleveland Center
10:27AM 42.4578 -79.2900 18° North 326 375 14,600 -1,800 Descending Cleveland Center
10:28AM 42.5394 -79.2506 20° North 314 361 12,700 -1,440 Descending Cleveland Center
10:29AM 42.6161 -79.2089 22° Northeast 296 341 11,700 -840 Descending Cleveland Center
10:30AM 42.6908 -79.1692 21° North 290 334 11,000 -1,020 Descending Cleveland Center
10:31AM 42.7672 -79.1039 32° Northeast 287 330 9,700 -1,440 Descending Cleveland Center
10:32AM 42.8233 -79.0331 43° Northeast 272 313 8,100 -1,620 Descending Cleveland Center
10:33AM 42.8753 -78.9728 40° Northeast 259 298 6,400 -1,620 Descending Cleveland Center
10:34AM 42.9258 -78.9156 40° Northeast 234 269 4,800 -1,500 Descending Cleveland Center
10:35AM 42.9756 -78.8572 41° Northeast 231 266 3,300 -900 Descending Cleveland Center
10:36AM 43.0186 -78.8036 42° Northeast 206 237 3,000 -180 Descending Cleveland Center
10:38AM 43.0461 -78.7322 62° Northeast 211 243 3,000 -360 Level Cleveland Center
10:39AM 43.1028 -78.7325 360° North 212 244 2,300 -360 Descending Cleveland Center
10:40AM 43.1167 -78.8167 283° West 181 208 2,200 -420 Descending Buffalo TRACON
10:41AM 43.1167 -78.8667 270° West 124 143 1,500 -720 Descending Buffalo TRACON
10:42AM 43.1167 -78.9167 270° West 125 144 800 -720 Descending Buffalo TRACON